Aviation Digital Data Service (ADDS)

Output produced by METARs form (0945 UTC 25 June 2018)
found at http://www.aviationweather.gov/adds/metars/
 
KAOO 250853Z AUTO 03007KT 10SM FEW020 OVC030 19/15 A3005 RMK AO2 SLP166 T01890150 53018
KAOO 250753Z AUTO 04004KT 10SM BKN017 OVC025 20/16 A3003 RMK AO2 SLP160 T02000161
KAOO 250743Z AUTO 03004KT 10SM BKN018 BKN025 OVC036 20/16 A3003 RMK AO2 T02000161
KAOO 250723Z AUTO 32005KT 10SM SCT021 SCT028 OVC036 21/16 A3002 RMK AO2 T02060161
KAOO 250653Z AUTO 31004KT 10SM BKN021 OVC030 21/16 A3001 RMK AO2 SLP152 T02060161
KAOO 250633Z AUTO 30005KT 10SM BKN023 21/16 A3001 RMK AO2 T02060161
KAOO 250553Z AUTO 32005KT 10SM FEW021 OVC055 21/16 A3000 RMK AO2 SLP146 60000 T02060161 10244 20194 53002
KAOO 250453Z AUTO 31004KT 10SM BKN055 20/16 A2999 RMK AO2 SLP145 T02000161 402830194
KAOO 250353Z AUTO 32006KT 10SM FEW100 21/16 A2998 RMK AO2 SLP140 T02110161
KAOO 250253Z AUTO 29005KT 10SM FEW033 SCT043 OVC100 21/17 A2999 RMK AO2 RAE02 SLP144 P0000 60000 T02110167 51023
KAOO 250153Z AUTO 27005KT 10SM -RA BKN035 BKN049 OVC070 22/16 A2998 RMK AO2 RAB50 SLP141 P0000 T02220156
KAOO 250053Z AUTO 31004KT 10SM OVC060 23/15 A2994 RMK AO2 SLP128 T02330150
KAOO 242353Z AUTO 29005KT 10SM FEW045 FEW055 24/16 A2992 RMK AO2 SLP120 T02440161 10283 20233 53008
KAOO 242253Z AUTO 32008KT 10SM CLR 25/16 A2991 RMK AO2 SLP116 T02500161
KAOO 242153Z AUTO 33008KT 10SM CLR 26/17 A2991 RMK AO2 WSHFT 2112 SLP116 T02610167
KAOO 242132Z AUTO 33013G18KT 10SM FEW035 SCT045 SCT100 26/17 A2990 RMK AO2 WSHFT 2112 T02610172
KAOO 242053Z AUTO 27011KT 10SM FEW075 26/18 A2990 RMK AO2 SLP112 T02560183 53004
KAOO 242001Z AUTO 24010KT 10SM FEW070 BKN095 BKN110 24/17 A2990 RMK AO2 LTG DSNT SE T02440172
KAOO 241953Z AUTO 23010KT 10SM VCTS BKN095 BKN120 23/17 A2989 RMK AO2 LTG DSNT SE SLP112 T02330172
KAOO 241924Z AUTO 25010KT 10SM VCTS FEW048 BKN070 OVC095 24/16 A2988 RMK AO2 LTG DSNT SW T02440161
KAOO 241853Z AUTO 29011KT 10SM FEW043 SCT050 BKN060 26/16 A2987 RMK AO2 LTG DSNT W SLP104 T02610161
KAOO 241753Z AUTO 24011KT 10SM SCT040 BKN049 BKN080 27/18 A2988 RMK AO2 SLP107 T02720183 10272 20217 58004
KAOO 241653Z AUTO 25011KT 10SM SCT044 BKN060 BKN075 25/17 A2991 RMK AO2 SLP116 T02500167
KAOO 241553Z AUTO 25011KT 10SM SCT037 BKN055 BKN070 26/18 A2991 RMK AO2 SLP115 T02610178
KAOO 241453Z AUTO 25009KT 10SM FEW030 FEW040 SCT065 26/19 A2990 RMK AO2 SLP112 T02560189 58001
KAOO 241353Z AUTO 23011KT 10SM SCT022 SCT029 24/19 A2990 RMK AO2 SLP114 T02390189
KAOO 241253Z AUTO 24009KT 10SM FEW080 23/19 A2990 RMK AO2 SLP115 T02330189
KAOO 241153Z AUTO 23006KT 10SM FEW044 OVC075 22/18 A2990 RMK AO2 SLP114 60000 70021 T02170183 10222 20194 53010
KAOO 241053Z AUTO 21004KT 10SM OVC075 21/18 A2989 RMK AO2 SLP111 T02060178
KAOO 240953Z AUTO 25007KT 10SM FEW021 21/17 A2988 RMK AO2 SLP106 T02060172
KAOO 240944Z AUTO 27007KT 10SM FEW022 21/17 A2987 RMK AO2 T02060172
KAOO 240910Z AUTO 26008KT 10SM BKN024 BKN070 21/17 A2987 RMK AO2 T02060172
KAOO 240853Z AUTO 24007KT 10SM SCT024 21/17 A2987 RMK AO2 SLP103 60000 T02060172 53003
KAOO 240753Z AUTO 23006KT 10SM FEW025 SCT040 BKN080 21/17 A2985 RMK AO2 SLP098 T02060172
KAOO 240722Z AUTO 24007KT 10SM FEW026 BKN031 OVC050 21/17 A2986 RMK AO2 T02110172
KAOO 240653Z AUTO 21005KT 10SM BKN025 OVC030 21/18 A2986 RMK AO2 RAB38E47 SLP102 P0000 T02060178
KAOO 240620Z AUTO 23003KT 10SM BKN025 BKN041 20/17 A2987 RMK AO2 T02000172
KAOO 240553Z AUTO 00000KT 10SM SCT036 20/17 A2986 RMK AO2 SLP101 T02000167 10233 20200 53000
KAOO 240453Z AUTO 18003KT 10SM OVC080 21/18 A2986 RMK AO2 SLP100 T02060178 402390167
KAOO 240353Z AUTO 24008KT 10SM FEW033 SCT070 SCT085 21/17 A2985 RMK AO2 SLP099 T02110172
KAOO 240253Z AUTO 21007KT 10SM BKN080 21/18 A2986 RMK AO2 SLP101 T02060178 51015
KAOO 240153Z AUTO 00000KT 10SM FEW044 SCT055 BKN065 22/19 A2985 RMK AO2 SLP098 T02170189
KAOO 240053Z AUTO 21005KT 10SM FEW038 22/19 A2982 RMK AO2 SLP090 T02170189
KAOO 232353Z AUTO 00000KT 10SM BKN039 BKN050 OVC090 23/20 A2981 RMK AO2 RAB33E42 SLP086 P0000 60020 T02330200 10239 20211 53005
KAOO 232253Z AUTO 18004KT 10SM SCT036 BKN043 OVC065 23/20 A2979 RMK AO2 RAB28E53 SLP081 P0000 T02280200
KAOO 232153Z AUTO 18007KT 10SM FEW019 BKN110 23/19 A2979 RMK AO2 SLP079 T02330194